Time;durP1;ratioP1;P1;durP2;ratioP2;P2;SDS_P1;SDS_P2;PMS_P1;PMS_P2;Temp;Humidity;BMP_temperature;BMP_pressure;BME280_temperature;BME280_humidity;BME280_pressure;Samples;Min_cycle;Max_cycle;Signal;HPM_P1;HPM_P2
2021/06/09 00:02:17;;;;;;;0.10;0.10;;;;;;;15.17;78.31;102322.75;5021087;28;20094;-80
2021/06/09 00:04:42;;;;;;;0.20;0.20;;;;;;;15.24;78.62;102325.75;5023417;28;20108;-80
2021/06/09 00:07:08;;;;;;;0.10;0.10;;;;;;;15.23;78.40;102340.66;5023212;28;20417;-80
2021/06/09 00:09:33;;;;;;;0.10;0.10;;;;;;;15.17;78.99;102343.75;4990685;28;20501;-80
2021/06/09 00:11:59;;;;;;;0.10;0.10;;;;;;;15.09;78.72;102332.97;5020575;28;20037;-80
2021/06/09 00:14:24;;;;;;;0.10;0.10;;;;;;;15.11;78.95;102336.34;5007381;28;20052;-80
2021/06/09 00:16:50;;;;;;;0.10;0.10;;;;;;;15.00;78.82;102323.97;5022169;28;20095;-80
2021/06/09 00:19:16;;;;;;;0.10;0.10;;;;;;;14.97;79.10;102324.22;5008610;28;20033;-80
2021/06/09 00:21:47;;;;;;;0.10;0.10;;;;;;;14.91;79.64;102319.41;5042429;28;20038;-80
2021/06/09 00:24:14;;;;;;;0.10;0.10;;;;;;;14.98;79.54;102340.78;5011597;28;20065;-80
2021/06/09 00:26:39;;;;;;;0.10;0.10;;;;;;;14.86;79.86;102331.16;5024043;28;20392;-80
2021/06/09 00:29:05;;;;;;;0.10;0.10;;;;;;;14.90;79.48;102336.09;5010367;28;20038;-80
2021/06/09 00:31:30;;;;;;;0.10;0.10;;;;;;;14.79;79.60;102315.06;5027115;28;20048;-79
2021/06/09 00:33:56;;;;;;;0.20;0.20;;;;;;;14.82;79.97;102326.16;5010756;28;20060;-80
2021/06/09 00:36:22;;;;;;;0.10;0.10;;;;;;;14.79;79.86;102331.63;5010612;28;20056;-80
2021/06/09 00:38:47;;;;;;;0.10;0.10;;;;;;;14.71;80.72;102336.56;5027059;28;21543;-80
2021/06/09 00:41:13;;;;;;;0.10;0.10;;;;;;;14.78;80.67;102344.84;5023535;28;20042;-79
2021/06/09 00:43:38;;;;;;;0.10;0.10;;;;;;;14.75;80.73;102345.06;5027275;28;20037;-80
2021/06/09 00:46:09;;;;;;;0.10;0.10;;;;;;;14.74;80.73;102341.59;5043904;28;20034;-80
2021/06/09 00:48:38;;;;;;;0.10;0.10;;;;;;;14.74;80.87;102352.09;5034642;28;20037;-80
2021/06/09 00:51:17;;;;;;;0.10;0.10;;;;;;;14.63;80.81;102331.03;5035166;28;20048;-80
2021/06/09 00:53:49;;;;;;;0.10;0.10;;;;;;;14.65;80.58;102344.88;5027033;28;20057;-80
2021/06/09 00:56:17;;;;;;;0.20;0.20;;;;;;;14.70;80.80;102344.53;5025169;28;20041;-80
2021/06/09 00:58:44;;;;;;;0.15;0.15;;;;;;;14.56;80.42;102340.28;5026536;28;20034;-80
2021/06/09 01:01:12;;;;;;;0.10;0.10;;;;;;;14.52;80.67;102336.19;5026637;28;20083;-80
2021/06/09 01:03:38;;;;;;;0.10;0.10;;;;;;;14.46;80.71;102332.22;5026348;28;20116;-80
2021/06/09 01:06:05;;;;;;;0.10;0.10;;;;;;;14.55;80.83;102348.28;4992457;28;20360;-80
2021/06/09 01:08:36;;;;;;;0.10;0.10;;;;;;;14.54;80.43;102347.41;5027406;28;20033;-80
2021/06/09 01:11:03;;;;;;;0.20;0.20;;;;;;;14.50;81.05;102351.19;5024334;28;20150;-80
2021/06/09 01:13:31;;;;;;;0.10;0.10;;;;;;;14.50;80.67;102345.94;5025512;28;20040;-80
2021/06/09 01:15:58;;;;;;;0.10;0.10;;;;;;;14.43;80.71;102342.94;5027235;28;20045;-80
2021/06/09 01:18:25;;;;;;;0.10;0.10;;;;;;;14.38;81.12;102334.53;5042329;28;20064;-80
2021/06/09 01:20:51;;;;;;;0.10;0.10;;;;;;;14.34;80.90;102329.59;5026843;28;20041;-80
2021/06/09 01:23:17;;;;;;;0.10;0.10;;;;;;;14.36;81.23;102333.81;4992043;28;20041;-80
2021/06/09 01:25:44;;;;;;;0.10;0.10;;;;;;;14.31;81.30;102324.56;5042979;28;20381;-80
2021/06/09 01:28:10;;;;;;;0.10;0.10;;;;;;;14.13;81.51;102290.84;5013781;28;20036;-80
2021/06/09 01:30:37;;;;;;;0.10;0.10;;;;;;;14.32;81.40;102321.00;5035588;28;20041;-80
2021/06/09 01:33:04;;;;;;;0.10;0.10;;;;;;;14.40;81.08;102313.44;5024371;28;20045;-80
2021/06/09 01:35:30;;;;;;;0.15;0.15;;;;;;;14.45;81.43;102324.47;5010765;28;20546;-80
2021/06/09 01:37:56;;;;;;;0.10;0.10;;;;;;;14.41;81.43;102313.34;5023312;28;20072;-80
2021/06/09 01:40:23;;;;;;;0.10;0.10;;;;;;;14.45;81.53;102322.69;5008604;28;20037;-80
2021/06/09 01:42:52;;;;;;;0.10;0.10;;;;;;;14.45;81.89;102332.34;5025731;28;20461;-80
2021/06/09 01:45:21;;;;;;;0.20;0.20;;;;;;;14.17;81.43;102292.28;5025298;28;20037;-80
2021/06/09 01:47:47;;;;;;;0.10;0.10;;;;;;;14.30;81.31;102320.28;5023596;28;20033;-80
2021/06/09 01:50:14;;;;;;;0.10;0.10;;;;;;;14.39;80.85;102327.50;5040379;28;20036;-80
2021/06/09 01:52:41;;;;;;;0.10;0.10;;;;;;;14.20;81.30;102291.28;5009398;28;20037;-80
2021/06/09 01:55:09;;;;;;;0.10;0.10;;;;;;;14.30;81.67;102322.88;5018911;28;20084;-80
2021/06/09 01:57:35;;;;;;;0.10;0.10;;;;;;;14.22;81.60;102305.09;5007571;28;20121;-81
2021/06/09 02:00:07;;;;;;;0.10;0.10;;;;;;;14.26;81.65;102319.66;5024890;28;20029;-80
2021/06/09 02:02:39;;;;;;;0.10;0.10;;;;;;;14.21;81.89;102316.53;5023423;28;20189;-80
2021/06/09 02:05:07;;;;;;;0.10;0.10;;;;;;;14.14;81.72;102313.47;5009205;28;20041;-80
2021/06/09 02:07:44;;;;;;;0.10;0.10;;;;;;;14.16;81.21;102314.19;5039656;28;20045;-80
2021/06/09 02:10:15;;;;;;;0.10;0.10;;;;;;;14.10;81.86;102319.88;5034064;28;20056;-81
2021/06/09 02:12:44;;;;;;;0.10;0.10;;;;;;;13.98;81.56;102301.53;5041804;28;20035;-80
2021/06/09 02:15:10;;;;;;;0.20;0.20;;;;;;;13.97;81.63;102302.47;5024998;28;20499;-80
2021/06/09 02:17:37;;;;;;;0.10;0.10;;;;;;;14.05;81.28;102308.88;5042228;28;20052;-80
2021/06/09 02:20:05;;;;;;;0.13;0.13;;;;;;;13.97;82.17;102286.75;5024658;28;20112;-80
2021/06/09 02:22:30;;;;;;;0.10;0.10;;;;;;;13.99;81.70;102288.34;5023937;28;20401;-80
2021/06/09 02:24:57;;;;;;;0.20;0.20;;;;;;;14.04;81.93;102306.38;4992204;28;20037;-80
2021/06/09 02:27:22;;;;;;;0.10;0.10;;;;;;;13.95;82.02;102299.13;5024850;28;20063;-81
2021/06/09 02:29:48;;;;;;;0.10;0.10;;;;;;;13.95;81.59;102296.50;5020549;28;20511;-81
2021/06/09 02:32:18;;;;;;;0.05;0.05;;;;;;;13.87;82.42;102300.50;5024061;28;20510;-80
2021/06/09 02:34:44;;;;;;;0.10;0.10;;;;;;;13.95;81.93;102293.91;5024920;28;20481;-81
2021/06/09 02:37:10;;;;;;;0.10;0.10;;;;;;;13.87;81.69;102276.94;5025408;28;20040;-80
2021/06/09 02:39:36;;;;;;;0.10;0.10;;;;;;;14.01;81.45;102298.72;5021701;28;20407;-81
2021/06/09 02:42:01;;;;;;;0.20;0.20;;;;;;;13.87;81.76;102283.97;5024896;28;20124;-81
2021/06/09 02:44:27;;;;;;;0.10;0.10;;;;;;;13.79;80.96;102281.00;5023817;28;20419;-80
2021/06/09 02:46:56;;;;;;;0.10;0.10;;;;;;;13.79;81.57;102283.63;5023508;28;20114;-81
2021/06/09 02:49:25;;;;;;;0.20;0.20;;;;;;;13.72;81.93;102290.22;5024100;28;20103;-80
2021/06/09 02:52:01;;;;;;;0.20;0.20;;;;;;;13.62;81.88;102274.31;5023878;28;20052;-80
2021/06/09 02:54:32;;;;;;;0.10;0.10;;;;;;;13.67;81.79;102292.34;5040746;28;20430;-80
2021/06/09 02:57:16;;;;;;;0.10;0.10;;;;;;;13.64;82.04;102285.50;5023221;28;20491;-80
2021/06/09 03:00:06;;;;;;;0.10;0.10;;;;;;;13.61;82.46;102291.78;5039814;28;20372;-80
2021/06/09 03:03:01;;;;;;;0.10;0.10;;;;;;;13.47;82.57;102270.97;5039134;28;20558;-80
2021/06/09 03:05:46;;;;;;;0.10;0.10;;;;;;;13.55;82.72;102283.53;5023197;28;20090;-80
2021/06/09 03:08:33;;;;;;;0.10;0.10;;;;;;;13.57;81.85;102292.09;5023507;28;20037;-80
2021/06/09 03:11:16;;;;;;;0.10;0.10;;;;;;;13.48;82.00;102275.25;5023250;28;20053;-80
2021/06/09 03:17:10;;;;;;;0.15;0.15;;;;;;;13.40;82.83;102269.69;5020894;28;20126;-80
2021/06/09 03:19:59;;;;;;;0.10;0.10;;;;;;;13.47;82.83;102291.91;5024407;28;20037;-80
2021/06/09 03:22:33;;;;;;;0.10;0.10;;;;;;;13.34;83.15;102275.31;5036718;28;20071;-81
2021/06/09 03:25:01;;;;;;;;;;;;;;;13.45;83.42;102285.06;5038730;28;20395;-81
2021/06/09 03:27:46;;;;;;;0.10;0.10;;;;;;;13.39;83.24;102281.09;5023675;28;19920;-80
2021/06/09 03:30:14;;;;;;;0.10;0.10;;;;;;;13.45;82.70;102279.81;5022951;28;20124;-80
2021/06/09 03:32:53;;;;;;;0.10;0.10;;;;;;;13.39;82.53;102288.09;5020713;28;20033;-80
2021/06/09 03:35:37;;;;;;;0.20;0.20;;;;;;;13.42;83.02;102280.03;5039374;28;20152;-80
2021/06/09 03:38:14;;;;;;;0.20;0.20;;;;;;;13.37;83.45;102274.28;5038815;28;20044;-80
2021/06/09 03:40:42;;;;;;;0.10;0.10;;;;;;;13.30;83.23;102271.25;5021575;28;20038;-80
2021/06/09 03:43:12;;;;;;;0.10;0.10;;;;;;;13.35;83.01;102278.78;5022800;28;20056;-80
2021/06/09 03:45:48;;;;;;;0.10;0.10;;;;;;;13.27;83.12;102271.44;5039870;28;20558;-80
2021/06/09 03:48:18;;;;;;;0.10;0.10;;;;;;;13.40;82.77;102281.91;5028850;28;20060;-80
2021/06/09 03:50:46;;;;;;;0.10;0.10;;;;;;;13.36;83.31;102286.53;5020016;28;20087;-81
2021/06/09 03:53:13;;;;;;;0.10;0.10;;;;;;;13.41;83.50;102291.44;5022591;28;20033;-80
2021/06/09 03:55:42;;;;;;;0.10;0.10;;;;;;;13.41;84.12;102286.22;5037650;28;20051;-80
2021/06/09 03:58:10;;;;;;;0.20;0.20;;;;;;;13.46;83.81;102297.19;5021810;28;20119;-80
2021/06/09 04:00:36;;;;;;;0.10;0.10;;;;;;;13.45;83.94;102285.06;5038660;28;20044;-80
2021/06/09 04:03:03;;;;;;;0.10;0.10;;;;;;;13.40;83.68;102272.28;5020054;28;20132;-80
2021/06/09 04:05:30;;;;;;;0.10;0.10;;;;;;;13.42;83.84;102277.41;5022681;28;20025;-80
2021/06/09 04:07:58;;;;;;;0.10;0.10;;;;;;;13.43;83.44;102266.00;5007461;28;20044;-80
2021/06/09 04:10:25;;;;;;;0.10;0.10;;;;;;;13.45;84.01;102275.44;5038804;28;20294;-81
2021/06/09 04:12:51;;;;;;;0.10;0.10;;;;;;;13.44;83.96;102272.91;5038185;28;20046;-80
2021/06/09 04:15:20;;;;;;;0.10;0.10;;;;;;;13.43;84.02;102266.00;5039834;28;20476;-80
2021/06/09 04:17:49;;;;;;;0.10;0.10;;;;;;;13.51;83.77;102275.03;5022463;28;20034;-81
2021/06/09 04:20:22;;;;;;;0.20;0.20;;;;;;;13.46;83.79;102260.56;5023954;28;20034;-80
2021/06/09 04:22:48;;;;;;;0.10;0.10;;;;;;;13.47;83.90;102257.88;5039396;28;20044;-80
2021/06/09 04:25:14;;;;;;;0.20;0.20;;;;;;;13.49;83.66;102260.38;5022451;28;20045;-80
2021/06/09 04:27:43;;;;;;;0.20;0.20;;;;;;;13.61;83.61;102276.09;5022452;28;20041;-80
2021/06/09 04:30:10;;;;;;;0.10;0.10;;;;;;;13.41;83.83;102234.72;5033394;28;20127;-80
2021/06/09 04:32:53;;;;;;;0.20;0.20;;;;;;;13.64;83.08;102255.88;4985714;28;20768;-80
2021/06/09 04:35:27;;;;;;;0.10;0.10;;;;;;;13.77;83.32;102272.44;5024009;28;20033;-81
2021/06/09 04:37:54;;;;;;;0.10;0.10;;;;;;;13.84;83.23;102274.53;5023516;28;20044;-80
2021/06/09 04:40:24;;;;;;;0.20;0.20;;;;;;;13.84;83.46;102264.06;5022368;28;20545;-80
2021/06/09 04:42:52;;;;;;;0.10;0.10;;;;;;;13.89;83.72;102267.19;5020360;28;20119;-80
2021/06/09 04:45:19;;;;;;;0.20;0.20;;;;;;;13.94;82.95;102272.09;5023390;28;20108;-80
2021/06/09 04:47:45;;;;;;;0.13;0.13;;;;;;;14.06;83.14;102275.66;5015910;28;20047;-81
2021/06/09 04:50:15;;;;;;;0.10;0.10;;;;;;;14.05;83.19;102269.59;5022158;28;20033;-80
2021/06/09 04:52:41;;;;;;;0.10;0.10;;;;;;;14.08;83.10;102255.44;5021190;28;20033;-80
2021/06/09 04:55:07;;;;;;;0.20;0.20;;;;;;;14.15;82.73;102262.75;5021956;28;20513;-80
2021/06/09 04:57:34;;;;;;;0.20;0.20;;;;;;;14.10;82.85;102248.31;5005216;28;20150;-80
2021/06/09 05:00:00;;;;;;;0.10;0.10;;;;;;;14.27;82.85;102262.84;5039427;28;20456;-80
2021/06/09 05:02:26;;;;;;;0.10;0.10;;;;;;;14.35;81.02;102258.72;5021971;28;20038;-80
2021/06/09 05:04:52;;;;;;;0.17;0.17;;;;;;;14.21;79.76;102222.19;5006708;28;20056;-81
2021/06/09 05:07:17;;;;;;;0.17;0.17;;;;;;;14.46;80.42;102250.97;5009558;28;20041;-80
2021/06/09 05:09:43;;;;;;;0.20;0.20;;;;;;;14.63;79.79;102267.28;4991747;28;20038;-80
2021/06/09 05:12:24;;;;;;;0.10;0.10;;;;;;;14.66;78.73;102264.44;5026338;28;20056;-80
2021/06/09 05:14:54;;;;;;;0.20;0.20;;;;;;;14.69;79.92;102261.56;5022817;28;20483;-81
2021/06/09 05:17:25;;;;;;;0.20;0.20;;;;;;;14.78;80.34;102258.31;5040424;28;20524;-80
2021/06/09 05:19:52;;;;;;;0.10;0.10;;;;;;;14.90;80.81;102270.53;5042590;28;20052;-80
2021/06/09 05:22:26;;;;;;;0.20;0.20;;;;;;;14.97;80.59;102265.66;5025000;28;20036;-80
2021/06/09 05:24:54;;;;;;;0.10;0.10;;;;;;;14.99;79.12;102256.72;5041494;28;20033;-80
2021/06/09 05:27:22;;;;;;;0.10;0.10;;;;;;;14.96;77.81;102250.88;5025169;28;20033;-80
2021/06/09 05:29:49;;;;;;;0.20;0.20;;;;;;;14.90;78.29;102225.94;5025174;28;20045;-80
2021/06/09 05:32:16;;;;;;;0.20;0.20;;;;;;;15.06;73.82;102243.97;5022966;28;20048;-80
2021/06/09 05:34:43;;;;;;;0.10;0.10;;;;;;;15.17;73.89;102257.16;5025825;28;20116;-80
2021/06/09 05:37:10;;;;;;;0.10;0.10;;;;;;;15.04;73.65;102217.03;5041148;28;20120;-80
2021/06/09 05:39:37;;;;;;;0.10;0.10;;;;;;;15.25;74.35;102240.81;5027681;28;20682;-80
2021/06/09 05:42:11;;;;;;;0.10;0.10;;;;;;;15.38;72.57;102252.06;5041697;28;20061;-80
2021/06/09 05:44:41;;;;;;;0.10;0.10;;;;;;;15.44;73.13;102249.00;5040203;28;20112;-80
2021/06/09 05:47:06;;;;;;;0.10;0.10;;;;;;;15.46;71.63;102243.63;5041141;28;20040;-80
2021/06/09 05:49:32;;;;;;;0.20;0.20;;;;;;;15.52;72.06;102249.25;4992033;28;20059;-80
2021/06/09 05:51:58;;;;;;;0.10;0.10;;;;;;;15.65;71.21;102251.81;5025508;28;20395;-81
2021/06/09 05:54:24;;;;;;;0.13;0.13;;;;;;;15.75;71.87;102262.44;5026526;28;20554;-81
2021/06/09 05:56:50;;;;;;;0.10;0.10;;;;;;;15.85;72.40;102266.03;5023258;28;20158;-80
2021/06/09 05:59:16;;;;;;;0.10;0.10;;;;;;;15.92;71.72;102265.44;5041519;28;20030;-81
2021/06/09 06:01:44;;;;;;;0.10;0.10;;;;;;;15.93;72.17;102255.75;5041171;28;20138;-81
2021/06/09 06:04:09;;;;;;;0.10;0.10;;;;;;;15.97;70.67;102255.38;5039839;28;20040;-80
2021/06/09 06:06:36;;;;;;;0.10;0.10;;;;;;;16.06;69.36;102256.47;5008403;28;20402;-81
2021/06/09 06:09:03;;;;;;;0.15;0.15;;;;;;;16.20;69.65;102269.38;5024922;28;20487;-81
2021/06/09 06:11:28;;;;;;;0.10;0.10;;;;;;;16.25;69.56;102263.75;5041322;28;20029;-80
2021/06/09 06:13:54;;;;;;;0.10;0.10;;;;;;;16.26;67.94;102255.75;5026525;28;20267;-81
2021/06/09 06:16:21;;;;;;;0.10;0.10;;;;;;;16.35;67.95;102261.25;5041810;28;20041;-80
2021/06/09 06:18:49;;;;;;;0.20;0.20;;;;;;;16.42;67.53;102258.00;5025986;28;20120;-80
2021/06/09 06:21:17;;;;;;;0.15;0.15;;;;;;;16.50;68.44;102254.72;4999473;28;20041;-80
2021/06/09 06:23:43;;;;;;;0.15;0.15;;;;;;;16.66;66.63;102270.13;5007650;28;20060;-81
2021/06/09 06:26:10;;;;;;;0.10;0.10;;;;;;;16.73;67.25;102273.97;5036054;28;20037;-81
2021/06/09 06:28:41;;;;;;;0.10;0.10;;;;;;;16.79;68.84;102274.31;5026296;28;20033;-81
2021/06/09 06:31:11;;;;;;;0.15;0.15;;;;;;;16.81;67.89;102263.66;5022711;28;20037;-81
2021/06/09 06:33:39;;;;;;;0.17;0.17;;;;;;;16.75;68.50;102243.13;5025095;28;20507;-81
2021/06/09 06:36:06;;;;;;;0.10;0.10;;;;;;;16.94;68.93;102263.50;5038135;28;20106;-81
2021/06/09 06:38:36;;;;;;;0.10;0.10;;;;;;;16.99;67.40;102259.50;5024378;28;20120;-81
2021/06/09 06:41:03;;;;;;;0.15;0.15;;;;;;;17.07;68.71;102259.72;5008835;28;20037;-81
2021/06/09 06:43:29;;;;;;;0.10;0.10;;;;;;;17.12;68.71;102248.81;5024770;28;20108;-82
2021/06/09 06:45:54;;;;;;;0.10;0.10;;;;;;;17.33;68.57;102265.44;5036776;28;20505;-81
2021/06/09 06:48:22;;;;;;;0.10;0.10;;;;;;;17.33;66.96;102257.53;5026390;28;20246;-81
2021/06/09 06:50:48;;;;;;;0.10;0.10;;;;;;;17.45;68.21;102269.69;5021591;28;20049;-81
2021/06/09 06:53:14;;;;;;;0.10;0.10;;;;;;;17.51;68.40;102263.06;5009981;28;20124;-81
2021/06/09 06:55:41;;;;;;;0.10;0.10;;;;;;;17.66;67.79;102266.19;4999915;28;20042;-81
2021/06/09 06:58:08;;;;;;;0.10;0.10;;;;;;;17.74;68.17;102267.22;5017047;28;20132;-81
2021/06/09 07:00:34;;;;;;;0.10;0.10;;;;;;;17.73;68.10;102248.94;5024942;28;20120;-81
2021/06/09 07:03:02;;;;;;;0.10;0.10;;;;;;;17.86;66.42;102259.25;5037267;28;20585;-81
2021/06/09 07:05:29;;;;;;;0.10;0.10;;;;;;;17.90;66.51;102252.75;5038398;28;20037;-81
2021/06/09 07:07:56;;;;;;;0.10;0.10;;;;;;;18.07;65.89;102260.88;5040371;28;20041;-81
2021/06/09 07:10:23;;;;;;;0.10;0.10;;;;;;;18.08;66.13;102248.53;4997813;28;20037;-81
2021/06/09 07:12:49;;;;;;;0.10;0.10;;;;;;;18.21;67.04;102257.03;5039889;28;20052;-82
2021/06/09 07:15:19;;;;;;;0.10;0.10;;;;;;;18.15;67.51;102247.03;5014082;28;20037;-81
2021/06/09 07:17:58;;;;;;;0.10;0.10;;;;;;;18.39;67.41;102265.97;5014630;28;20690;-82
2021/06/09 07:20:26;;;;;;;0.10;0.10;;;;;;;18.48;66.28;102259.03;5022532;28;20037;-82
2021/06/09 07:22:54;;;;;;;0.10;0.10;;;;;;;18.52;67.21;102246.41;5023412;28;20037;-81
2021/06/09 07:25:21;;;;;;;0.10;0.10;;;;;;;18.66;67.55;102259.22;5010022;28;20055;-81
2021/06/09 07:27:50;;;;;;;0.10;0.10;;;;;;;18.65;65.59;102252.28;5034645;28;20056;-81
2021/06/09 07:30:18;;;;;;;0.20;0.20;;;;;;;18.77;65.94;102263.56;5028954;28;20040;-80
2021/06/09 07:32:46;;;;;;;0.20;0.20;;;;;;;18.78;65.58;102249.38;4981766;28;20046;-79
2021/06/09 07:35:14;;;;;;;0.10;0.10;;;;;;;18.86;65.12;102253.00;5023565;28;20038;-79
2021/06/09 07:37:50;;;;;;;0.10;0.10;;;;;;;18.95;64.95;102259.25;5028590;28;20060;-79
2021/06/09 07:40:25;;;;;;;0.10;0.10;;;;;;;19.01;66.24;102248.13;5026551;28;20059;-80
2021/06/09 07:42:54;;;;;;;0.10;0.10;;;;;;;19.29;64.56;102260.47;5017875;28;20033;-79
2021/06/09 07:45:22;;;;;;;0.10;0.10;;;;;;;19.37;64.55;102249.19;5023051;28;21255;-79
2021/06/09 07:47:48;;;;;;;0.10;0.10;;;;;;;19.51;64.74;102261.13;5018800;28;20064;-77
2021/06/09 07:50:22;;;;;;;0.10;0.10;;;;;;;19.54;63.05;102243.19;5007254;28;20116;-77
2021/06/09 07:52:48;;;;;;;0.10;0.10;;;;;;;19.72;64.16;102256.50;5018953;28;20862;-77
2021/06/09 07:55:14;;;;;;;0.10;0.10;;;;;;;19.83;63.80;102251.03;5043381;28;20044;-78
2021/06/09 07:57:41;;;;;;;0.10;0.10;;;;;;;20.02;60.93;102270.44;4985344;28;20484;-78
2021/06/09 08:00:11;;;;;;;0.10;0.10;;;;;;;20.05;61.88;102252.47;5023167;28;20467;-79
2021/06/09 08:02:42;;;;;;;0.10;0.10;;;;;;;20.17;62.31;102261.88;5014834;28;20044;-79
2021/06/09 08:05:09;;;;;;;0.10;0.10;;;;;;;20.28;60.47;102258.19;5022588;28;20380;-81
2021/06/09 08:07:36;;;;;;;0.10;0.10;;;;;;;20.38;60.35;102261.63;5018452;28;20488;-81
2021/06/09 08:10:05;;;;;;;0.10;0.10;;;;;;;20.47;60.52;102260.78;5005787;28;20391;-81
2021/06/09 08:12:32;;;;;;;0.10;0.10;;;;;;;20.60;62.46;102251.63;5021929;28;20126;-81
2021/06/09 08:14:58;;;;;;;0.10;0.10;;;;;;;20.76;59.69;102257.91;5000472;28;20582;-82
2021/06/09 08:17:24;;;;;;;0.10;0.10;;;;;;;20.81;59.98;102254.78;5038501;28;20029;-81
2021/06/09 08:19:50;;;;;;;0.05;0.05;;;;;;;20.92;60.34;102253.75;5022199;28;20036;-81
2021/06/09 08:22:16;;;;;;;0.10;0.10;;;;;;;20.90;59.21;102240.66;5021775;28;20041;-81
2021/06/09 08:24:41;;;;;;;0.10;0.10;;;;;;;20.96;60.36;102241.84;5002132;28;20049;-81
2021/06/09 08:27:07;;;;;;;0.20;0.10;;;;;;;21.00;60.37;102238.72;5023155;28;20041;-81
2021/06/09 08:29:36;;;;;;;0.10;0.10;;;;;;;21.24;58.10;102254.03;4978542;28;20042;-81
2021/06/09 08:32:03;;;;;;;0.10;0.10;;;;;;;21.27;59.04;102234.34;5020679;28;20034;-80
2021/06/09 08:34:29;;;;;;;0.10;0.10;;;;;;;21.38;58.45;102236.75;5004785;28;20034;-80
2021/06/09 08:36:55;;;;;;;0.10;0.10;;;;;;;21.42;58.03;102235.44;5021783;28;20107;-78
2021/06/09 08:39:22;;;;;;;0.10;0.10;;;;;;;21.59;58.18;102250.44;5013478;28;20461;-81
2021/06/09 08:41:49;;;;;;;0.10;0.10;;;;;;;21.62;57.67;102246.66;5001073;28;20144;-80
2021/06/09 08:44:17;;;;;;;0.10;0.10;;;;;;;21.70;58.01;102247.50;5016848;28;20059;-80
2021/06/09 08:46:43;;;;;;;0.00;0.00;;;;;;;21.83;55.27;102244.44;5024490;28;20037;-80
2021/06/09 08:49:09;;;;;;;0.10;0.10;;;;;;;21.91;54.61;102244.50;5026140;28;20033;-80
2021/06/09 08:51:35;;;;;;;0.10;0.10;;;;;;;21.96;54.92;102239.53;5023820;28;20048;-81
2021/06/09 08:54:05;;;;;;;0.10;0.10;;;;;;;22.08;56.13;102236.59;5007915;28;20099;-81
2021/06/09 08:56:31;;;;;;;0.10;0.10;;;;;;;22.17;55.71;102244.44;5023303;28;20126;-81
2021/06/09 08:58:58;;;;;;;0.10;0.10;;;;;;;22.28;54.19;102238.84;5025791;28;20048;-78
2021/06/09 09:01:24;;;;;;;0.05;0.05;;;;;;;22.30;55.88;102239.50;5022892;28;20084;-81
2021/06/09 09:03:50;;;;;;;0.10;0.10;;;;;;;22.37;55.76;102244.97;5008876;28;20436;-82
2021/06/09 09:06:16;;;;;;;0.10;0.10;;;;;;;22.35;54.48;102232.88;5022654;28;20329;-81
2021/06/09 09:08:42;;;;;;;0.00;0.00;;;;;;;22.30;54.14;102205.00;5026071;28;20088;-79
2021/06/09 09:11:08;;;;;;;0.10;0.10;;;;;;;22.57;54.00;102237.56;5006906;28;20041;-81
2021/06/09 09:13:34;;;;;;;0.05;0.05;;;;;;;22.77;55.10;102230.09;5008288;28;20246;-82
2021/06/09 09:16:00;;;;;;;0.10;0.10;;;;;;;22.97;54.29;102244.75;5005522;28;20037;-81
2021/06/09 09:18:39;;;;;;;0.10;0.10;;;;;;;22.99;53.47;102248.09;5018139;28;20049;-81
2021/06/09 09:21:05;;;;;;;0.00;0.00;;;;;;;23.02;53.49;102250.41;5023378;28;20041;-78
2021/06/09 09:23:32;;;;;;;0.10;0.10;;;;;;;23.05;51.84;102239.44;5007031;28;20045;-79
2021/06/09 09:26:00;;;;;;;0.00;0.00;;;;;;;23.17;49.72;102242.59;5040902;28;20099;-79
2021/06/09 09:28:32;;;;;;;0.03;0.03;;;;;;;23.08;49.65;102240.94;5007159;28;20348;-80
2021/06/09 09:31:09;;;;;;;0.00;0.00;;;;;;;23.00;51.50;102251.56;5022428;28;20480;-80
2021/06/09 09:33:35;;;;;;;0.10;0.10;;;;;;;23.07;50.18;102236.63;4998508;28;20076;-79
2021/06/09 09:36:23;;;;;;;0.10;0.10;;;;;;;23.17;49.85;102253.22;5006538;28;20566;-79
2021/06/09 09:38:49;;;;;;;0.00;0.00;;;;;;;23.13;48.61;102246.56;5014098;28;20589;-79
2021/06/09 09:41:18;;;;;;;0.03;0.03;;;;;;;23.22;50.73;102253.53;5023899;28;20045;-79
2021/06/09 09:43:57;;;;;;;0.00;0.00;;;;;;;23.19;50.33;102249.41;5014991;28;20123;-79
2021/06/09 09:46:35;;;;;;;0.00;0.00;;;;;;;23.31;48.73;102236.56;5023372;28;20623;-79
2021/06/09 09:49:11;;;;;;;0.05;0.05;;;;;;;23.64;49.50;102248.00;5024360;28;20060;-79
2021/06/09 09:51:55;;;;;;;0.00;0.00;;;;;;;23.78;50.50;102252.63;5020820;28;20039;-79
2021/06/09 09:54:29;;;;;;;0.00;0.00;;;;;;;24.04;50.54;102241.69;5020621;28;20046;-79
2021/06/09 09:56:57;;;;;;;0.10;0.10;;;;;;;24.39;49.31;102248.34;5035787;28;20826;-79
2021/06/09 09:59:26;;;;;;;0.00;0.00;;;;;;;24.43;46.22;102229.38;5009767;28;20507;-79
2021/06/09 10:01:53;;;;;;;0.00;0.00;;;;;;;24.41;46.04;102241.00;5005853;28;20045;-80
2021/06/09 10:04:33;;;;;;;0.00;0.00;;;;;;;24.46;45.67;102240.50;4996649;28;20068;-79
2021/06/09 10:06:59;;;;;;;0.00;0.00;;;;;;;24.50;46.55;102247.13;5025313;28;20534;-80
2021/06/09 10:09:29;;;;;;;0.00;0.00;;;;;;;24.66;45.39;102243.53;5005887;28;20033;-81
2021/06/09 10:12:03;;;;;;;0.10;0.10;;;;;;;24.60;44.89;102229.09;5025541;28;20033;-81
2021/06/09 10:14:49;;;;;;;0.00;0.00;;;;;;;24.90;45.69;102240.66;5007984;28;20672;-81
2021/06/09 10:17:16;;;;;;;0.00;0.00;;;;;;;24.96;44.79;102234.63;5035908;28;20107;-80
2021/06/09 10:19:49;;;;;;;0.10;0.10;;;;;;;25.11;47.00;102232.00;5005916;28;20072;-80
2021/06/09 10:22:18;;;;;;;0.00;0.00;;;;;;;25.07;45.75;102230.72;5021553;28;20041;-81
2021/06/09 10:24:55;;;;;;;0.00;0.00;;;;;;;25.03;44.33;102237.41;5021227;28;20067;-81
2021/06/09 10:27:51;;;;;;;0.00;0.00;;;;;;;24.53;46.50;102243.28;5039062;28;20092;-79
2021/06/09 10:30:20;;;;;;;0.00;0.00;;;;;;;24.49;46.60;102241.97;5007961;28;20029;-80
2021/06/09 10:32:57;;;;;;;0.00;0.00;;;;;;;24.18;45.92;102226.00;5022884;28;20037;-79
2021/06/09 10:35:26;;;;;;;0.00;0.00;;;;;;;24.11;47.60;102231.19;5012759;28;20033;-80
2021/06/09 10:37:53;;;;;;;0.03;0.03;;;;;;;23.90;47.95;102217.66;5024738;28;20045;-80
2021/06/09 10:40:21;;;;;;;0.00;0.00;;;;;;;24.03;48.91;102233.88;4987982;28;20042;-79
2021/06/09 10:42:49;;;;;;;0.08;0.08;;;;;;;24.17;47.19;102235.81;5022745;28;20534;-80
2021/06/09 10:45:21;;;;;;;0.00;0.00;;;;;;;24.27;48.68;102239.09;5005607;28;20387;-80
2021/06/09 10:47:47;;;;;;;0.00;0.00;;;;;;;24.32;48.09;102231.44;5040126;28;20033;-79
2021/06/09 10:50:14;;;;;;;0.10;0.10;;;;;;;24.47;47.77;102220.84;4999663;28;20056;-79
2021/06/09 10:52:40;;;;;;;0.00;0.00;;;;;;;24.96;47.97;102233.81;5039925;28;20029;-79
2021/06/09 10:55:08;;;;;;;0.10;0.10;;;;;;;25.34;47.52;102223.13;5005601;28;20061;-81
2021/06/09 10:57:36;;;;;;;0.10;0.08;;;;;;;25.44;44.76;102216.50;5006036;28;20487;-80
2021/06/09 11:00:04;;;;;;;0.00;0.00;;;;;;;25.70;44.47;102210.75;4990100;28;20037;-80
2021/06/09 11:02:30;;;;;;;0.00;0.00;;;;;;;25.84;43.74;102199.19;5023756;28;20116;-80
2021/06/09 11:05:03;;;;;;;0.00;0.00;;;;;;;25.95;42.84;102200.56;4990146;28;20033;-80
2021/06/09 11:07:43;;;;;;;0.03;0.03;;;;;;;25.76;43.37;102201.16;5018697;28;20037;-81
2021/06/09 11:10:16;;;;;;;0.00;0.00;;;;;;;25.66;43.91;102213.91;5024189;28;20487;-79
2021/06/09 11:12:49;;;;;;;0.00;0.00;;;;;;;25.73;46.13;102217.53;5015185;28;20037;-80
2021/06/09 11:15:16;;;;;;;0.00;0.00;;;;;;;25.84;44.38;102204.53;5041001;28;20040;-80
2021/06/09 11:17:50;;;;;;;0.00;0.00;;;;;;;25.24;44.38;102202.06;5009004;28;20037;-80
2021/06/09 11:20:36;;;;;;;0.00;0.00;;;;;;;25.11;45.30;102205.34;5039646;28;20037;-79
2021/06/09 11:23:23;;;;;;;0.00;0.00;;;;;;;24.91;47.01;102213.00;5017809;28;20090;-80
2021/06/09 11:25:50;;;;;;;0.00;0.00;;;;;;;24.67;48.26;102216.72;5025235;28;20033;-80
2021/06/09 11:28:19;;;;;;;0.10;0.10;;;;;;;24.77;46.55;102215.63;5017866;28;20391;-80
2021/06/09 11:30:45;;;;;;;0.00;0.00;;;;;;;25.49;48.51;102206.09;5020551;28;20037;-80
2021/06/09 11:33:32;;;;;;;0.00;0.00;;;;;;;26.13;43.00;102194.81;5005362;28;20086;-81
2021/06/09 11:35:59;;;;;;;0.08;0.08;;;;;;;26.57;42.09;102197.38;5022843;28;20063;-80
2021/06/09 11:38:27;;;;;;;0.00;0.00;;;;;;;26.06;43.55;102192.09;4983916;28;20040;-80